createdAt,value
2018-08-16T00:02:01.639Z,99.90
2018-08-16T00:04:30.159Z,99.90
2018-08-16T00:06:58.699Z,99.90
2018-08-16T00:09:27.715Z,99.90
2018-08-16T00:11:56.254Z,99.90
2018-08-16T00:14:24.765Z,99.90
2018-08-16T00:16:53.439Z,99.90
2018-08-16T00:19:21.899Z,99.90
2018-08-16T00:21:50.381Z,99.90
2018-08-16T00:24:18.879Z,99.90
2018-08-16T00:26:47.734Z,99.90
2018-08-16T00:29:16.278Z,99.90
2018-08-16T00:31:44.774Z,99.90
2018-08-16T00:34:13.243Z,99.90
2018-08-16T00:36:41.686Z,99.90
2018-08-16T00:39:10.566Z,99.90
2018-08-16T00:41:39.527Z,99.90
2018-08-16T00:44:08.376Z,99.90
2018-08-16T00:46:36.903Z,99.90
2018-08-16T00:49:05.831Z,99.90
2018-08-16T00:51:34.311Z,99.90
2018-08-16T00:54:02.865Z,99.90
2018-08-16T00:56:31.678Z,99.90
2018-08-16T00:59:00.163Z,99.90
2018-08-16T01:01:28.627Z,99.90
2018-08-16T01:03:57.200Z,99.90
2018-08-16T01:06:25.998Z,99.90
2018-08-16T01:08:54.474Z,99.90
2018-08-16T01:11:22.930Z,99.90
2018-08-16T01:13:51.489Z,99.90
2018-08-16T01:16:19.952Z,99.90
2018-08-16T01:18:48.451Z,99.90
2018-08-16T01:21:17.016Z,99.90
2018-08-16T01:23:45.846Z,99.90
2018-08-16T01:26:14.312Z,99.90
2018-08-16T01:28:42.862Z,99.90
2018-08-16T01:31:11.351Z,99.90
2018-08-16T01:33:40.186Z,99.90
2018-08-16T01:36:09.021Z,99.90
2018-08-16T01:38:37.496Z,99.90
2018-08-16T01:41:05.955Z,99.90
2018-08-16T01:43:34.415Z,99.90
2018-08-16T01:46:03.224Z,99.90
2018-08-16T01:48:31.733Z,99.90
2018-08-16T01:51:00.187Z,99.90
2018-08-16T01:53:28.675Z,99.90
2018-08-16T01:56:10.411Z,99.90
2018-08-16T01:58:39.651Z,99.90
2018-08-16T02:01:08.098Z,99.90
2018-08-16T02:03:36.613Z,99.90
2018-08-16T02:06:05.155Z,99.90
2018-08-16T02:08:33.985Z,99.90
2018-08-16T02:11:02.527Z,99.90
2018-08-16T02:13:30.990Z,99.90
2018-08-16T02:15:59.479Z,99.90
2018-08-16T02:18:27.969Z,99.90
2018-08-16T02:20:56.431Z,99.90
2018-08-16T02:23:25.263Z,99.90
2018-08-16T02:25:53.707Z,99.90
2018-08-16T02:28:22.174Z,99.90
2018-08-16T02:30:50.693Z,99.90
2018-08-16T02:33:19.165Z,99.90
2018-08-16T02:35:47.631Z,99.90
2018-08-16T02:38:16.132Z,99.90
2018-08-16T02:40:44.641Z,99.90
2018-08-16T02:43:13.148Z,99.90
2018-08-16T02:45:41.682Z,99.90
2018-08-16T02:48:10.218Z,99.90
2018-08-16T02:50:38.668Z,99.90
2018-08-16T02:53:07.128Z,99.90
2018-08-16T02:55:35.654Z,99.90
2018-08-16T02:58:04.143Z,99.90
2018-08-16T03:00:32.600Z,99.90
2018-08-16T03:03:01.067Z,99.90
2018-08-16T03:05:29.605Z,99.90
2018-08-16T03:07:58.228Z,99.90
2018-08-16T03:10:26.752Z,99.90
2018-08-16T03:12:55.223Z,99.90
2018-08-16T03:15:23.694Z,99.90
2018-08-16T03:17:52.550Z,99.90
2018-08-16T03:20:21.067Z,99.90
2018-08-16T03:22:49.510Z,99.90
2018-08-16T03:25:17.979Z,99.90
2018-08-16T03:27:46.453Z,99.90
2018-08-16T03:30:14.931Z,99.90
2018-08-16T03:32:43.382Z,99.90
2018-08-16T03:35:11.949Z,99.90
2018-08-16T03:37:40.496Z,99.90
2018-08-16T03:40:09.096Z,99.90
2018-08-16T03:42:37.607Z,99.90
2018-08-16T03:45:07.299Z,99.90
2018-08-16T03:47:35.766Z,99.90
2018-08-16T03:50:04.857Z,99.90
2018-08-16T03:52:33.342Z,99.90
2018-08-16T03:55:01.844Z,99.90
2018-08-16T03:57:30.793Z,99.90
2018-08-16T03:59:59.332Z,99.90
2018-08-16T04:02:27.832Z,99.90
2018-08-16T04:04:56.306Z,99.90
2018-08-16T04:07:24.988Z,99.90
2018-08-16T04:09:53.463Z,99.90
2018-08-16T04:12:21.970Z,99.90
2018-08-16T04:14:50.512Z,99.90
2018-08-16T04:17:18.974Z,99.90
2018-08-16T04:19:47.458Z,99.90
2018-08-16T04:22:15.937Z,99.90
2018-08-16T04:24:44.568Z,99.90
2018-08-16T04:27:13.031Z,99.90
2018-08-16T04:29:41.495Z,99.90
2018-08-16T04:32:09.949Z,99.90
2018-08-16T04:34:38.401Z,99.90
2018-08-16T04:37:07.252Z,99.90
2018-08-16T04:39:35.717Z,99.90
2018-08-16T04:42:04.590Z,99.90
2018-08-16T04:44:34.019Z,99.90
2018-08-16T04:47:02.526Z,99.90
2018-08-16T04:49:30.973Z,99.90
2018-08-16T04:52:00.026Z,99.90
2018-08-16T04:54:28.494Z,99.90
2018-08-16T04:56:57.051Z,99.90
2018-08-16T04:59:26.030Z,99.90
2018-08-16T05:01:55.187Z,99.90
2018-08-16T05:04:23.713Z,99.90
2018-08-16T05:06:52.279Z,99.90
2018-08-16T05:09:20.790Z,99.90
2018-08-16T05:11:49.438Z,99.90
2018-08-16T05:14:17.907Z,99.90
2018-08-16T05:16:46.394Z,99.90
2018-08-16T05:19:14.879Z,99.90
2018-08-16T05:21:43.346Z,99.90
2018-08-16T05:24:17.795Z,99.90
2018-08-16T05:26:46.258Z,99.90
2018-08-16T05:29:14.703Z,99.90
2018-08-16T05:31:43.263Z,99.90
2018-08-16T05:34:11.869Z,99.90
2018-08-16T05:36:40.699Z,99.90
2018-08-16T05:39:10.613Z,99.90
2018-08-16T05:41:39.438Z,99.90
2018-08-16T05:44:08.144Z,99.90
2018-08-16T05:46:37.059Z,99.90
2018-08-16T05:49:05.834Z,99.90
2018-08-16T05:51:34.290Z,99.90
2018-08-16T05:54:03.483Z,99.90
2018-08-16T05:56:32.276Z,99.90
2018-08-16T05:59:00.758Z,99.90
2018-08-16T06:01:29.272Z,99.90
2018-08-16T06:03:58.135Z,99.90
2018-08-16T06:06:26.959Z,99.90
2018-08-16T06:08:55.578Z,99.90
2018-08-16T06:11:24.046Z,99.90
2018-08-16T06:13:52.682Z,99.90
2018-08-16T06:16:21.662Z,99.90
2018-08-16T06:18:50.492Z,99.90
2018-08-16T06:21:19.674Z,99.90
2018-08-16T06:23:48.233Z,99.90
2018-08-16T06:26:16.725Z,99.90
2018-08-16T06:28:45.320Z,99.90
2018-08-16T06:31:13.812Z,99.90
2018-08-16T06:33:42.556Z,99.90
2018-08-16T06:36:11.030Z,99.90
2018-08-16T06:38:39.939Z,99.90
2018-08-16T06:41:08.767Z,99.90
2018-08-16T06:43:37.295Z,99.90
2018-08-16T06:46:06.224Z,99.90
2018-08-16T06:48:34.869Z,99.90
2018-08-16T06:51:03.357Z,99.90
2018-08-16T06:53:32.428Z,99.90
2018-08-16T06:56:01.023Z,99.90
2018-08-16T06:58:29.552Z,99.90
2018-08-16T07:00:58.051Z,99.90
2018-08-16T07:03:26.507Z,99.90
2018-08-16T07:05:55.360Z,99.90
2018-08-16T07:08:24.223Z,99.90
2018-08-16T07:10:53.899Z,99.90
2018-08-16T07:13:22.440Z,99.90
2018-08-16T07:15:50.921Z,99.90
2018-08-16T07:18:19.386Z,99.90
2018-08-16T07:20:47.936Z,99.90
2018-08-16T07:23:16.791Z,99.90
2018-08-16T07:25:45.899Z,99.90
2018-08-16T07:28:14.411Z,99.90
2018-08-16T07:30:43.231Z,99.90
2018-08-16T07:33:13.019Z,99.90
2018-08-16T07:35:41.852Z,99.90
2018-08-16T07:39:35.119Z,99.90
2018-08-16T07:42:03.676Z,99.90
2018-08-16T07:44:32.172Z,99.90
2018-08-16T07:47:00.992Z,99.90
2018-08-16T07:49:29.459Z,99.90
2018-08-16T07:51:57.930Z,99.90
2018-08-16T07:54:26.626Z,99.90
2018-08-16T07:56:55.113Z,99.90
2018-08-16T07:59:23.766Z,99.90
2018-08-16T08:01:52.272Z,99.90
2018-08-16T08:04:20.747Z,99.90
2018-08-16T08:06:49.214Z,99.90
2018-08-16T08:09:17.766Z,99.90
2018-08-16T08:11:46.712Z,99.90
2018-08-16T08:14:15.197Z,99.90
2018-08-16T08:16:43.738Z,99.90
2018-08-16T08:19:12.421Z,99.90
2018-08-16T08:21:40.880Z,99.90
2018-08-16T08:24:09.943Z,99.90
2018-08-16T08:26:38.750Z,99.90
2018-08-16T08:29:07.614Z,99.90
2018-08-16T08:31:36.940Z,99.90
2018-08-16T08:34:06.060Z,99.90
2018-08-16T08:36:46.260Z,99.90
2018-08-16T08:39:15.404Z,99.90
2018-08-16T08:41:44.167Z,99.90
2018-08-16T08:44:28.683Z,99.90
2018-08-16T08:46:57.225Z,99.90
2018-08-16T08:50:28.046Z,99.90
2018-08-16T08:55:08.826Z,99.90
2018-08-16T08:57:48.400Z,99.90
2018-08-16T09:00:16.930Z,99.90
2018-08-16T09:02:45.408Z,99.90
2018-08-16T09:05:14.211Z,99.90
2018-08-16T09:07:43.359Z,99.90
2018-08-16T09:11:20.402Z,99.90
2018-08-16T09:14:02.339Z,99.90
2018-08-16T09:16:32.985Z,99.90
2018-08-16T09:19:02.135Z,99.90
2018-08-16T09:21:31.691Z,99.90
2018-08-16T09:24:00.277Z,99.90
2018-08-16T09:26:34.565Z,99.90
2018-08-16T09:29:06.955Z,99.90
2018-08-16T09:31:48.018Z,99.90
2018-08-16T09:34:19.615Z,99.90
2018-08-16T09:36:48.155Z,99.90
2018-08-16T09:39:17.735Z,99.90
2018-08-16T09:41:47.813Z,99.90
2018-08-16T09:44:17.560Z,99.90
2018-08-16T09:47:04.423Z,99.90
2018-08-16T09:49:34.737Z,99.90
2018-08-16T09:52:08.120Z,99.90
2018-08-16T09:54:37.074Z,99.90
2018-08-16T09:57:06.814Z,99.90
2018-08-16T09:59:35.292Z,99.90
2018-08-16T10:02:04.405Z,99.90
2018-08-16T10:04:33.362Z,99.90
2018-08-16T10:07:02.636Z,99.90
2018-08-16T10:09:31.926Z,99.90
2018-08-16T10:12:01.683Z,99.90
2018-08-16T10:14:30.152Z,99.90
2018-08-16T10:16:58.686Z,99.90
2018-08-16T10:19:28.087Z,99.90
2018-08-16T10:21:56.589Z,99.90
2018-08-16T10:24:25.050Z,99.90
2018-08-16T10:26:53.535Z,99.90
2018-08-16T10:29:22.023Z,99.90
2018-08-16T10:31:51.034Z,99.90
2018-08-16T10:34:19.482Z,99.90
2018-08-16T10:36:47.942Z,99.90
2018-08-16T10:39:17.567Z,99.90
2018-08-16T10:41:46.431Z,99.90
2018-08-16T10:44:15.192Z,99.90
2018-08-16T10:46:43.763Z,99.90
2018-08-16T10:49:12.250Z,99.90
2018-08-16T10:51:40.779Z,99.90
2018-08-16T10:54:09.374Z,99.90
2018-08-16T10:56:37.844Z,99.90
2018-08-16T10:59:06.391Z,99.00
2018-08-16T11:01:35.527Z,99.60
2018-08-16T11:04:04.055Z,99.90
2018-08-16T11:06:32.876Z,99.80
2018-08-16T11:09:01.326Z,99.40
2018-08-16T11:11:29.808Z,99.50
2018-08-16T11:13:58.332Z,98.70
2018-08-16T11:16:26.763Z,98.50
2018-08-16T11:18:56.244Z,98.70
2018-08-16T11:21:24.778Z,98.50
2018-08-16T11:23:53.271Z,98.40
2018-08-16T11:26:21.736Z,97.90
2018-08-16T11:28:51.541Z,98.40
2018-08-16T11:31:20.642Z,97.40
2018-08-16T11:33:49.135Z,98.20
2018-08-16T11:36:17.640Z,97.60
2018-08-16T11:38:46.711Z,97.20
2018-08-16T11:41:16.132Z,96.70
2018-08-16T11:43:44.620Z,95.90
2018-08-16T11:46:13.781Z,94.20
2018-08-16T11:48:42.286Z,94.90
2018-08-16T11:51:11.095Z,95.10
2018-08-16T11:53:40.113Z,95.50
2018-08-16T11:56:09.014Z,96.00
2018-08-16T11:58:37.837Z,94.90
2018-08-16T12:01:06.539Z,94.40
2018-08-16T12:03:35.389Z,94.00
2018-08-16T12:06:03.920Z,94.30
2018-08-16T12:08:32.442Z,93.70
2018-08-16T12:11:00.923Z,94.40
2018-08-16T12:13:30.983Z,94.20
2018-08-16T12:15:59.476Z,92.70
2018-08-16T12:18:27.959Z,93.80
2018-08-16T12:20:56.479Z,92.90
2018-08-16T12:23:25.138Z,93.20
2018-08-16T12:25:54.049Z,93.20
2018-08-16T12:28:23.875Z,92.30
2018-08-16T12:30:52.344Z,91.90
2018-08-16T12:33:20.835Z,92.10
2018-08-16T12:35:50.001Z,91.50
2018-08-16T12:38:18.452Z,92.50
2018-08-16T12:40:50.108Z,92.40
2018-08-16T12:43:15.655Z,92.20
2018-08-16T12:45:44.168Z,91.70
2018-08-16T12:48:12.620Z,90.90
2018-08-16T12:50:41.103Z,91.50
2018-08-16T12:53:09.563Z,92.00
2018-08-16T12:55:38.067Z,91.50
2018-08-16T12:58:06.566Z,91.90
2018-08-16T13:00:35.050Z,91.40
2018-08-16T13:03:03.535Z,91.20
2018-08-16T13:05:33.813Z,91.40
2018-08-16T13:08:02.345Z,91.10
2018-08-16T13:10:31.421Z,90.10
2018-08-16T13:13:00.016Z,89.10
2018-08-16T13:15:28.920Z,89.20
2018-08-16T13:17:57.859Z,88.00
2018-08-16T13:20:26.560Z,86.80
2018-08-16T13:22:55.060Z,88.80
2018-08-16T13:25:23.571Z,88.20
2018-08-16T13:27:52.026Z,88.00
2018-08-16T13:30:20.855Z,89.20
2018-08-16T13:32:49.294Z,87.50
2018-08-16T13:35:17.824Z,87.40
2018-08-16T13:37:46.287Z,88.60
2018-08-16T13:40:14.759Z,89.00
2018-08-16T13:42:43.197Z,89.40
2018-08-16T13:45:11.663Z,87.70
2018-08-16T13:47:40.108Z,88.40
2018-08-16T13:50:08.587Z,87.10
2018-08-16T13:52:37.019Z,86.90
2018-08-16T13:55:05.555Z,87.00
2018-08-16T13:57:34.116Z,86.70
2018-08-16T14:00:02.583Z,89.20
2018-08-16T14:02:31.047Z,86.70
2018-08-16T14:04:59.504Z,86.80
2018-08-16T14:07:27.979Z,86.80
2018-08-16T14:09:56.875Z,88.00
2018-08-16T14:12:25.599Z,88.10
2018-08-16T14:14:54.043Z,88.90
2018-08-16T14:17:22.575Z,89.90
2018-08-16T14:19:51.423Z,89.00
2018-08-16T14:22:19.899Z,90.10
2018-08-16T14:24:48.365Z,90.50
2018-08-16T14:27:16.866Z,90.20
2018-08-16T14:29:45.343Z,89.10
2018-08-16T14:32:13.897Z,89.50
2018-08-16T14:34:44.188Z,89.20
2018-08-16T14:37:12.721Z,88.90
2018-08-16T14:39:41.255Z,88.40
2018-08-16T14:42:09.751Z,89.50
2018-08-16T14:44:38.215Z,89.60
2018-08-16T14:47:07.255Z,90.00
2018-08-16T14:49:35.854Z,89.70
2018-08-16T14:52:04.686Z,88.80
2018-08-16T14:54:33.175Z,90.60
2018-08-16T14:57:01.796Z,90.70
2018-08-16T14:59:30.308Z,90.80
2018-08-16T15:01:58.807Z,91.10
2018-08-16T15:04:27.279Z,90.60
2018-08-16T15:06:55.749Z,90.40
2018-08-16T15:09:25.099Z,90.80
2018-08-16T15:11:53.575Z,90.40
2018-08-16T15:14:22.043Z,90.50
2018-08-16T15:16:50.591Z,90.50
2018-08-16T15:19:19.078Z,90.90
2018-08-16T15:21:47.587Z,90.90
2018-08-16T15:24:18.334Z,90.90
2018-08-16T15:26:47.339Z,90.80
2018-08-16T15:29:16.072Z,91.00
2018-08-16T15:31:44.983Z,91.20
2018-08-16T15:34:13.784Z,90.90
2018-08-16T15:36:42.426Z,90.80
2018-08-16T15:39:41.395Z,91.10
2018-08-16T15:42:10.398Z,90.90
2018-08-16T15:44:38.829Z,90.50
2018-08-16T15:47:07.335Z,90.80
2018-08-16T15:49:35.803Z,91.40
2018-08-16T15:52:04.341Z,91.20
2018-08-16T15:54:33.139Z,91.10
2018-08-16T15:57:01.608Z,91.30
2018-08-16T15:59:30.410Z,91.10
2018-08-16T16:01:58.891Z,91.70
2018-08-16T16:04:27.316Z,91.40
2018-08-16T16:06:55.834Z,91.50
2018-08-16T16:09:24.258Z,91.40
2018-08-16T16:11:53.092Z,91.50
2018-08-16T16:14:21.514Z,91.60
2018-08-16T16:16:49.977Z,91.70
2018-08-16T16:19:18.438Z,91.20
2018-08-16T16:21:46.945Z,91.30
2018-08-16T16:24:15.417Z,91.10
2018-08-16T16:26:43.859Z,91.60
2018-08-16T16:29:12.687Z,91.50
2018-08-16T16:31:41.129Z,91.60
2018-08-16T16:34:09.674Z,91.70
2018-08-16T16:36:38.134Z,91.70
2018-08-16T16:39:09.422Z,91.30
2018-08-16T16:41:37.920Z,91.60
2018-08-16T16:44:06.775Z,91.30
2018-08-16T16:46:35.325Z,91.50
2018-08-16T16:49:03.911Z,91.90
2018-08-16T16:51:32.382Z,92.00
2018-08-16T16:54:00.872Z,92.20
2018-08-16T16:56:29.335Z,92.40
2018-08-16T16:58:57.871Z,92.30
2018-08-16T17:01:26.338Z,92.60
2018-08-16T17:03:54.851Z,93.20
2018-08-16T17:06:23.323Z,93.40
2018-08-16T17:08:51.799Z,93.60
2018-08-16T17:11:20.623Z,93.90
2018-08-16T17:13:49.104Z,94.20
2018-08-16T17:16:17.956Z,94.50
2018-08-16T17:18:46.675Z,94.50
2018-08-16T17:21:15.182Z,94.80
2018-08-16T17:23:43.758Z,95.10
2018-08-16T17:26:12.276Z,95.30
2018-08-16T17:28:41.247Z,95.90
2018-08-16T17:31:09.725Z,96.40
2018-08-16T17:33:38.203Z,96.50
2018-08-16T17:36:06.696Z,96.60
2018-08-16T17:38:35.178Z,97.30
2018-08-16T17:41:03.716Z,97.20
2018-08-16T17:43:32.348Z,97.30
2018-08-16T17:46:01.172Z,97.40
2018-08-16T17:48:29.624Z,97.50
2018-08-16T17:50:58.068Z,97.90
2018-08-16T17:53:26.546Z,98.10
2018-08-16T17:55:54.995Z,98.20
2018-08-16T17:58:23.463Z,98.70
2018-08-16T18:00:52.037Z,99.10
2018-08-16T18:03:20.654Z,99.20
2018-08-16T18:05:49.851Z,99.50
2018-08-16T18:08:18.345Z,99.60
2018-08-16T18:10:46.816Z,99.90
2018-08-16T18:13:15.295Z,99.80
2018-08-16T18:15:43.738Z,99.90
2018-08-16T18:18:12.211Z,99.90
2018-08-16T18:20:40.662Z,99.90
2018-08-16T18:23:09.149Z,99.90
2018-08-16T18:25:37.604Z,99.90
2018-08-16T18:28:06.042Z,99.90
2018-08-16T18:30:34.503Z,99.90
2018-08-16T18:33:02.967Z,99.90
2018-08-16T18:35:31.674Z,99.90
2018-08-16T18:38:00.147Z,99.90
2018-08-16T18:40:28.608Z,99.90
2018-08-16T18:42:57.117Z,99.90
2018-08-16T18:45:25.626Z,99.90
2018-08-16T18:47:54.072Z,99.90
2018-08-16T18:50:22.590Z,99.90
2018-08-16T18:52:51.430Z,99.90
2018-08-16T18:55:19.942Z,99.90
2018-08-16T18:57:48.464Z,99.90
2018-08-16T19:00:17.010Z,99.90
2018-08-16T19:02:45.508Z,99.90
2018-08-16T19:05:14.021Z,99.90
2018-08-16T19:07:42.554Z,99.90
2018-08-16T19:10:18.016Z,99.90
2018-08-16T19:12:46.812Z,99.90
2018-08-16T19:15:15.338Z,99.90
2018-08-16T19:17:44.220Z,99.90
2018-08-16T19:20:12.746Z,99.90
2018-08-16T19:22:41.559Z,99.90
2018-08-16T19:25:10.127Z,99.90
2018-08-16T19:27:38.580Z,99.90
2018-08-16T19:30:07.422Z,99.90
2018-08-16T19:32:36.355Z,99.90
2018-08-16T19:35:05.387Z,99.90
2018-08-16T19:37:33.904Z,99.90
2018-08-16T19:40:02.402Z,99.90
2018-08-16T19:42:31.184Z,99.90
2018-08-16T19:44:59.670Z,99.90
2018-08-16T19:47:28.114Z,99.90
2018-08-16T19:49:57.242Z,99.90
2018-08-16T19:52:26.047Z,99.90
2018-08-16T19:54:54.521Z,99.90
2018-08-16T19:57:22.999Z,99.90
2018-08-16T19:59:51.848Z,99.90
2018-08-16T20:02:20.642Z,99.90
2018-08-16T20:04:49.232Z,99.90
2018-08-16T20:07:17.789Z,99.90
2018-08-16T20:09:46.270Z,99.90
2018-08-16T20:12:14.822Z,99.90
2018-08-16T20:14:43.322Z,99.90
2018-08-16T20:17:11.959Z,99.90
2018-08-16T20:19:40.483Z,99.90
2018-08-16T20:22:16.053Z,99.90
2018-08-16T20:24:44.663Z,99.90
2018-08-16T20:27:13.942Z,99.90
2018-08-16T20:29:42.827Z,99.90
2018-08-16T20:32:11.316Z,99.90
2018-08-16T20:34:40.170Z,99.90
2018-08-16T20:37:08.911Z,99.90
2018-08-16T20:39:37.600Z,99.90
2018-08-16T20:42:06.394Z,99.90
2018-08-16T20:44:34.942Z,99.90
2018-08-16T20:47:03.526Z,99.90
2018-08-16T20:49:32.974Z,99.90
2018-08-16T20:52:01.484Z,99.90
2018-08-16T20:54:29.981Z,99.90
2018-08-16T20:56:58.471Z,99.90
2018-08-16T20:59:26.987Z,99.90
2018-08-16T21:01:55.479Z,99.90
2018-08-16T21:04:23.982Z,99.90
2018-08-16T21:06:52.619Z,99.90
2018-08-16T21:09:21.081Z,99.90
2018-08-16T21:11:49.591Z,99.90
2018-08-16T21:14:18.096Z,99.90
2018-08-16T21:16:46.575Z,99.90
2018-08-16T21:19:15.014Z,99.90
2018-08-16T21:21:43.556Z,99.90
2018-08-16T21:24:12.223Z,99.90
2018-08-16T21:26:40.742Z,99.90
2018-08-16T21:29:09.179Z,99.90
2018-08-16T21:31:37.991Z,99.90
2018-08-16T21:34:09.752Z,99.90
2018-08-16T21:36:38.675Z,99.90
2018-08-16T21:39:08.803Z,99.90
2018-08-16T21:41:37.397Z,99.90
2018-08-16T21:44:05.912Z,99.90
2018-08-16T21:46:34.376Z,99.90
2018-08-16T21:49:02.846Z,99.90
2018-08-16T21:51:31.326Z,99.90
2018-08-16T21:53:59.780Z,99.90
2018-08-16T21:56:28.242Z,99.90
2018-08-16T21:58:56.949Z,99.90
2018-08-16T22:01:25.680Z,99.90
2018-08-16T22:03:54.491Z,99.90
2018-08-16T22:06:34.141Z,99.90
2018-08-16T22:09:02.705Z,99.90
2018-08-16T22:11:31.160Z,99.90
2018-08-16T22:13:59.607Z,99.90
2018-08-16T22:16:28.334Z,99.90
2018-08-16T22:18:56.842Z,99.90
2018-08-16T22:21:25.302Z,99.90
2018-08-16T22:23:53.746Z,99.90
2018-08-16T22:26:22.243Z,99.90
2018-08-16T22:28:50.689Z,99.90
2018-08-16T22:31:19.911Z,99.90
2018-08-16T22:33:48.540Z,99.90
2018-08-16T22:36:17.087Z,99.90
2018-08-16T22:38:45.536Z,99.90
2018-08-16T22:41:14.024Z,99.90
2018-08-16T22:43:42.484Z,99.90
2018-08-16T22:46:10.932Z,99.90
2018-08-16T22:48:39.482Z,99.90
2018-08-16T22:51:07.973Z,99.90
2018-08-16T22:53:36.444Z,99.90
2018-08-16T22:56:05.558Z,99.90
2018-08-16T22:58:34.418Z,99.90
2018-08-16T23:01:02.999Z,99.90
2018-08-16T23:03:31.615Z,99.90
2018-08-16T23:06:00.076Z,99.90
2018-08-16T23:08:28.913Z,99.90
2018-08-16T23:10:57.396Z,99.90
2018-08-16T23:13:25.947Z,99.90
2018-08-16T23:15:54.419Z,99.90
2018-08-16T23:18:22.912Z,99.90
2018-08-16T23:20:51.422Z,99.90
2018-08-16T23:23:19.947Z,99.90
2018-08-16T23:25:48.436Z,99.90
2018-08-16T23:28:16.923Z,99.90
2018-08-16T23:30:45.405Z,99.90
2018-08-16T23:33:13.902Z,99.90
2018-08-16T23:35:42.408Z,99.90
2018-08-16T23:38:10.887Z,99.90
2018-08-16T23:40:39.361Z,99.90
2018-08-16T23:43:08.204Z,99.90
2018-08-16T23:45:36.819Z,99.90
2018-08-16T23:48:16.418Z,99.90
2018-08-16T23:50:44.904Z,99.90
2018-08-16T23:53:13.812Z,99.90
2018-08-16T23:55:43.266Z,99.90
2018-08-16T23:58:11.807Z,99.90
